Time;durP1;ratioP1;P1;durP2;ratioP2;P2;SDS_P1;SDS_P2;PMS_P1;PMS_P2;Temp;Humidity;BMP_temperature;BMP_pressure;BME280_temperature;BME280_humidity;BME280_pressure;Samples;Min_cycle;Max_cycle;Signal;HPM_P1;HPM_P2
2021/01/29 00:00:44;;;;;;;0.70;0.33;;;12.50;99.90;;;;;;4992313;28;20575;-60
2021/01/29 00:03:14;;;;;;;0.90;0.53;;;12.60;99.90;;;;;;4992257;28;20675;-60
2021/01/29 00:05:42;;;;;;;1.07;0.37;;;12.60;99.90;;;;;;4992306;28;20435;-60
2021/01/29 00:08:09;;;;;;;1.40;0.50;;;12.70;99.90;;;;;;4992193;28;20231;-60
2021/01/29 00:10:36;;;;;;;1.03;0.47;;;12.80;99.90;;;;;;4992132;28;20208;-61
2021/01/29 00:13:03;;;;;;;1.30;0.50;;;12.90;99.90;;;;;;4992186;28;20207;-61
2021/01/29 00:15:30;;;;;;;1.17;0.60;;;13.00;99.90;;;;;;4992033;28;20231;-61
2021/01/29 00:17:57;;;;;;;0.53;0.40;;;12.90;99.90;;;;;;4992170;28;20592;-60
2021/01/29 00:20:26;;;;;;;0.90;0.37;;;13.00;99.90;;;;;;4992441;28;20211;-61
2021/01/29 00:22:52;;;;;;;3.20;1.13;;;12.90;99.90;;;;;;4992005;28;20680;-60
2021/01/29 00:25:21;;;;;;;2.03;0.70;;;13.00;99.90;;;;;;4991677;28;20232;-60
2021/01/29 00:27:48;;;;;;;1.03;0.40;;;13.00;99.90;;;;;;4991981;28;20239;-60
2021/01/29 00:30:16;;;;;;;0.60;0.50;;;13.00;99.90;;;;;;4992209;28;20211;-60
2021/01/29 00:32:44;;;;;;;1.43;0.53;;;12.80;99.90;;;;;;4992115;28;20250;-60
2021/01/29 00:35:12;;;;;;;0.83;0.40;;;12.80;99.90;;;;;;4991977;28;20278;-60
2021/01/29 00:37:40;;;;;;;1.83;0.90;;;12.70;99.90;;;;;;4991831;28;20579;-61
2021/01/29 00:40:08;;;;;;;1.60;0.90;;;12.70;99.90;;;;;;4991820;28;20729;-60
2021/01/29 00:42:35;;;;;;;1.33;0.80;;;12.70;99.90;;;;;;4991932;28;20269;-60
2021/01/29 00:45:01;;;;;;;1.40;0.80;;;12.60;99.90;;;;;;4991607;28;20236;-61
2021/01/29 00:47:28;;;;;;;2.33;0.97;;;12.50;99.90;;;;;;4991800;28;20213;-60
2021/01/29 00:49:54;;;;;;;1.57;0.90;;;12.50;99.90;;;;;;4991653;28;20211;-60
2021/01/29 00:52:21;;;;;;;1.43;0.90;;;12.40;99.90;;;;;;4991618;28;20218;-60
2021/01/29 00:54:47;;;;;;;1.80;1.10;;;12.40;99.90;;;;;;4990962;28;20770;-60
2021/01/29 00:57:13;;;;;;;2.07;0.90;;;12.40;99.90;;;;;;4991606;28;20238;-61
2021/01/29 00:59:39;;;;;;;1.30;0.80;;;12.40;99.90;;;;;;4991515;28;20261;-60
2021/01/29 01:02:06;;;;;;;0.97;0.70;;;12.40;99.90;;;;;;4991543;28;20203;-60
2021/01/29 01:04:32;;;;;;;0.77;0.50;;;12.30;99.90;;;;;;4991327;28;20219;-60
2021/01/29 01:06:58;;;;;;;0.77;0.70;;;12.20;99.90;;;;;;4991381;28;20215;-60
2021/01/29 01:09:25;;;;;;;0.90;0.50;;;12.30;99.90;;;;;;4991474;28;20207;-60
2021/01/29 01:11:51;;;;;;;1.07;0.60;;;12.30;99.90;;;;;;4991466;28;20214;-60
2021/01/29 01:14:17;;;;;;;1.63;0.87;;;12.10;99.90;;;;;;4991064;28;20610;-60
2021/01/29 01:16:44;;;;;;;1.30;0.90;;;12.10;99.90;;;;;;4991337;28;20810;-60
2021/01/29 01:19:10;;;;;;;1.60;0.87;;;12.20;99.90;;;;;;4991393;28;20211;-60
2021/01/29 01:21:36;;;;;;;0.80;0.60;;;12.10;99.90;;;;;;4991285;28;20218;-60
2021/01/29 01:24:03;;;;;;;1.30;0.93;;;12.00;99.90;;;;;;4991112;28;20236;-60
2021/01/29 01:26:30;;;;;;;2.60;1.53;;;11.90;99.90;;;;;;4991531;28;20211;-60
2021/01/29 01:28:57;;;;;;;1.77;1.00;;;12.10;99.90;;;;;;4991568;28;20207;-60
2021/01/29 01:31:23;;;;;;;2.17;1.00;;;12.20;99.90;;;;;;4991341;28;20218;-60
2021/01/29 01:33:49;;;;;;;2.73;0.80;;;12.20;99.90;;;;;;4991429;28;20224;-60
2021/01/29 01:36:16;;;;;;;2.50;0.97;;;12.30;99.90;;;;;;4991281;28;20227;-60
2021/01/29 01:38:43;;;;;;;1.40;0.80;;;12.30;99.90;;;;;;4991169;28;20396;-60
2021/01/29 01:41:09;;;;;;;1.00;0.60;;;12.30;99.90;;;;;;4991256;28;20207;-60
2021/01/29 01:43:37;;;;;;;2.83;0.70;;;12.30;99.90;;;;;;4991120;28;20247;-59
2021/01/29 01:46:06;;;;;;;1.10;0.80;;;12.30;99.90;;;;;;4991249;28;20200;-60
2021/01/29 01:48:46;;;;;;;0.60;0.60;;;12.20;99.90;;;;;;4991149;28;20635;-60
2021/01/29 01:51:20;;;;;;;2.10;0.70;;;12.20;99.90;;;;;;4991345;28;20611;-60
2021/01/29 01:53:49;;;;;;;1.03;0.90;;;12.20;99.90;;;;;;4991367;28;20235;-60
2021/01/29 01:56:20;;;;;;;2.17;1.10;;;12.20;99.90;;;;;;4991339;28;20227;-60
2021/01/29 01:58:52;;;;;;;0.70;0.70;;;12.20;99.90;;;;;;4991010;28;20703;-60
2021/01/29 02:01:21;;;;;;;2.53;1.87;;;12.30;99.90;;;;;;4991430;28;20212;-60
2021/01/29 02:03:48;;;;;;;2.10;1.30;;;12.20;99.90;;;;;;4990988;28;20339;-60
2021/01/29 02:06:15;;;;;;;1.67;1.40;;;12.30;99.90;;;;;;4992258;28;20207;-60
2021/01/29 02:08:43;;;;;;;1.80;1.17;;;12.20;99.90;;;;;;4994410;28;20215;-60
2021/01/29 02:11:13;;;;;;;2.67;1.20;;;12.20;99.90;;;;;;4994348;28;20203;-60
2021/01/29 02:13:39;;;;;;;2.00;1.10;;;12.20;99.90;;;;;;4994479;28;20758;-60
2021/01/29 02:16:14;;;;;;;1.10;0.97;;;12.20;99.90;;;;;;4994456;28;20231;-60
2021/01/29 02:18:53;;;;;;;1.20;1.10;;;12.30;99.90;;;;;;4994290;28;20218;-60
2021/01/29 02:22:03;;;;;;;2.73;1.20;;;12.30;99.90;;;;;;4994296;28;20218;-60
2021/01/29 02:25:10;;;;;;;1.37;0.70;;;12.40;99.90;;;;;;4994061;28;20310;-60
2021/01/29 02:27:49;;;;;;;1.30;0.93;;;12.40;99.90;;;;;;4994050;28;20207;-60
2021/01/29 02:30:37;;;;;;;1.27;0.80;;;12.40;99.90;;;;;;4994016;28;20211;-60
2021/01/29 02:33:31;;;;;;;1.03;0.83;;;12.20;99.90;;;;;;4994186;28;20242;-60
2021/01/29 02:36:45;;;;;;;0.73;0.50;;;12.20;99.90;;;;;;4993763;28;20738;-60
2021/01/29 02:39:44;;;;;;;1.03;0.83;;;12.20;99.90;;;;;;4993885;28;20262;-60
2021/01/29 02:42:27;;;;;;;1.10;0.87;;;12.20;99.90;;;;;;4993803;28;20215;-60
2021/01/29 02:45:12;;;;;;;1.37;0.87;;;12.00;99.90;;;;;;5041517;23;20739;-63
2021/01/29 02:47:48;;;;;;;2.30;0.70;;;12.00;99.90;;;;;;5033709;28;20225;-64
2021/01/29 02:50:33;;;;;;;0.67;0.50;;;12.00;99.90;;;;;;5033518;28;20724;-63
2021/01/29 02:53:06;;;;;;;0.67;0.60;;;12.00;99.90;;;;;;5033316;28;20202;-62
2021/01/29 02:55:37;;;;;;;1.03;0.80;;;12.10;99.90;;;;;;5033618;28;20655;-62
2021/01/29 02:58:11;;;;;;;1.23;0.80;;;12.10;99.90;;;;;;5033708;28;20217;-62
2021/01/29 03:00:44;;;;;;;1.27;0.60;;;12.00;99.90;;;;;;5033504;28;20209;-63
2021/01/29 03:03:18;;;;;;;0.77;0.60;;;11.90;99.90;;;;;;5033793;28;20206;-64
2021/01/29 03:05:52;;;;;;;0.60;0.50;;;11.90;99.90;;;;;;5033128;28;20226;-63
2021/01/29 03:08:24;;;;;;;0.87;0.57;;;11.90;99.90;;;;;;5033279;28;20210;-64
2021/01/29 03:10:58;;;;;;;0.60;0.50;;;12.00;99.90;;;;;;5033207;28;20210;-64
2021/01/29 03:13:30;;;;;;;0.93;0.40;;;11.80;99.90;;;;;;5032654;28;20626;-63
2021/01/29 03:16:04;;;;;;;1.23;0.50;;;11.70;99.90;;;;;;5032934;28;20597;-62
2021/01/29 03:18:35;;;;;;;0.93;0.50;;;11.60;99.90;;;;;;5032857;28;20213;-63
2021/01/29 03:21:05;;;;;;;1.60;0.47;;;11.60;99.90;;;;;;5033234;28;20206;-64
2021/01/29 03:23:37;;;;;;;0.67;0.30;;;11.70;99.90;;;;;;5032705;28;20202;-63
2021/01/29 03:26:10;;;;;;;0.30;0.30;;;11.70;99.90;;;;;;5033079;28;20210;-64
2021/01/29 03:28:41;;;;;;;1.53;0.40;;;11.70;99.90;;;;;;5032731;28;20735;-64
2021/01/29 03:31:10;;;;;;;0.70;0.60;;;11.70;99.90;;;;;;5032973;28;20693;-63
2021/01/29 03:33:38;;;;;;;0.43;0.37;;;11.80;99.90;;;;;;5032437;28;20592;-64
2021/01/29 03:36:07;;;;;;;1.30;0.43;;;11.80;99.90;;;;;;5032357;28;20233;-64
2021/01/29 03:38:39;;;;;;;1.53;0.50;;;11.80;99.90;;;;;;5032337;28;20700;-64
2021/01/29 03:41:15;;;;;;;0.30;0.30;;;11.70;99.90;;;;;;5032338;28;20590;-63
2021/01/29 03:43:54;;;;;;;1.17;0.60;;;11.70;99.90;;;;;;5032182;28;20230;-64
2021/01/29 03:46:28;;;;;;;1.37;0.50;;;11.80;99.90;;;;;;5032420;28;20271;-64
2021/01/29 03:49:02;;;;;;;0.40;0.40;;;11.80;99.90;;;;;;5032458;28;20206;-63
2021/01/29 03:51:37;;;;;;;0.40;0.40;;;11.90;99.90;;;;;;5032304;28;20201;-64
2021/01/29 03:54:10;;;;;;;1.17;0.60;;;11.90;99.90;;;;;;5031858;28;20280;-64
2021/01/29 03:56:46;;;;;;;0.67;0.50;;;12.00;99.90;;;;;;5032384;28;20226;-64
2021/01/29 03:59:23;;;;;;;0.50;0.40;;;12.10;99.90;;;;;;5031953;28;20415;-64
2021/01/29 04:01:55;;;;;;;0.70;0.40;;;12.00;99.90;;;;;;5031872;28;20213;-64
2021/01/29 04:04:26;;;;;;;0.47;0.23;;;11.90;99.90;;;;;;5031877;28;20636;-64
2021/01/29 04:07:00;;;;;;;0.53;0.30;;;11.90;99.90;;;;;;5031903;28;20682;-64
2021/01/29 04:09:40;;;;;;;0.93;0.50;;;11.90;99.90;;;;;;5031748;28;20213;-64
2021/01/29 04:12:11;;;;;;;0.30;0.30;;;11.80;99.90;;;;;;5031746;28;20289;-64
2021/01/29 04:14:43;;;;;;;0.30;0.30;;;11.90;99.90;;;;;;5031880;28;20234;-63
2021/01/29 04:17:15;;;;;;;2.13;0.60;;;11.90;99.90;;;;;;5031953;28;20209;-63
2021/01/29 04:19:43;;;;;;;1.30;0.50;;;11.90;99.90;;;;;;5031768;28;20601;-63
2021/01/29 04:22:17;;;;;;;1.57;0.43;;;12.00;99.90;;;;;;5031881;28;20206;-63
2021/01/29 04:24:50;;;;;;;1.23;0.40;;;12.00;99.90;;;;;;5031677;28;20226;-62
2021/01/29 04:27:21;;;;;;;0.60;0.50;;;12.00;99.90;;;;;;5032026;28;20237;-62
2021/01/29 04:29:53;;;;;;;0.43;0.40;;;12.00;99.90;;;;;;5030909;28;20221;-63
2021/01/29 04:32:23;;;;;;;0.53;0.40;;;12.00;99.90;;;;;;5032041;28;20210;-63
2021/01/29 04:34:52;;;;;;;1.03;0.40;;;11.90;99.90;;;;;;5031843;28;20226;-63
2021/01/29 04:37:26;;;;;;;1.07;0.60;;;11.90;99.90;;;;;;5032001;28;20202;-62
2021/01/29 04:39:57;;;;;;;1.53;0.50;;;11.90;99.90;;;;;;5032018;28;20214;-63
2021/01/29 04:42:42;;;;;;;1.03;0.30;;;11.90;99.90;;;;;;5032000;28;20218;-63
2021/01/29 04:45:25;;;;;;;0.57;0.40;;;11.80;99.90;;;;;;5031388;28;20238;-64
2021/01/29 04:47:57;;;;;;;0.40;0.40;;;11.80;99.90;;;;;;5031575;28;20221;-64
2021/01/29 04:50:35;;;;;;;3.17;0.87;;;11.90;99.90;;;;;;5031683;28;20210;-64
2021/01/29 04:53:22;;;;;;;2.80;0.40;;;11.90;99.90;;;;;;5031959;28;20194;-63
2021/01/29 04:56:25;;;;;;;0.53;0.40;;;11.90;99.90;;;;;;5029492;28;20226;-63
2021/01/29 04:59:12;;;;;;;0.40;0.30;;;11.90;99.90;;;;;;5031233;28;20205;-63
2021/01/29 05:01:52;;;;;;;2.57;1.03;;;12.00;99.90;;;;;;5031638;28;20213;-65
2021/01/29 05:05:03;;;;;;;1.03;0.50;;;12.00;99.90;;;;;;5030995;28;20226;-64
2021/01/29 05:07:49;;;;;;;1.20;1.10;;;11.90;99.90;;;;;;5031292;28;20206;-62
2021/01/29 05:10:52;;;;;;;0.93;0.20;;;11.80;99.90;;;;;;5031119;28;20213;-63
2021/01/29 05:13:47;;;;;;;0.60;0.40;;;11.80;99.90;;;;;;5030781;28;20576;-63
2021/01/29 05:16:58;;;;;;;0.30;0.30;;;11.80;99.90;;;;;;5031162;28;20321;-64
2021/01/29 05:19:44;;;;;;;0.70;0.30;;;11.80;99.90;;;;;;5007966;28;20202;-63
2021/01/29 05:22:29;;;;;;;1.20;0.40;;;11.80;99.90;;;;;;5031147;28;20202;-63
2021/01/29 05:25:14;;;;;;;0.37;0.30;;;11.70;99.90;;;;;;5030541;28;20721;-63
2021/01/29 05:28:04;;;;;;;0.73;0.30;;;11.80;99.90;;;;;;5030731;28;20673;-65
2021/01/29 05:30:45;;;;;;;0.30;0.17;;;11.60;99.90;;;;;;5022003;28;20213;-65
2021/01/29 05:33:45;;;;;;;0.30;0.20;;;11.70;99.90;;;;;;5030912;28;20206;-64
2021/01/29 05:36:30;;;;;;;0.63;0.30;;;11.70;99.90;;;;;;5030989;28;20603;-64
2021/01/29 05:39:15;;;;;;;0.83;0.20;;;11.70;99.90;;;;;;5030710;28;20211;-65
2021/01/29 05:42:07;;;;;;;1.40;0.47;;;11.70;99.90;;;;;;5034449;28;20619;-64
2021/01/29 05:44:56;;;;;;;0.73;0.30;;;11.60;99.90;;;;;;5034293;28;20754;-64
2021/01/29 05:48:00;;;;;;;2.90;0.43;;;11.50;99.90;;;;;;5034543;28;20217;-64
2021/01/29 05:51:04;;;;;;;0.57;0.30;;;11.40;99.90;;;;;;5013052;28;20209;-63
2021/01/29 05:53:52;;;;;;;1.43;0.20;;;11.30;99.90;;;;;;5034453;28;20215;-63
2021/01/29 05:56:31;;;;;;;0.80;0.30;;;11.40;99.90;;;;;;5034255;28;20396;-64
2021/01/29 05:59:24;;;;;;;0.47;0.23;;;11.40;99.90;;;;;;5034340;28;20213;-64
2021/01/29 06:02:16;;;;;;;0.63;0.30;;;11.40;99.90;;;;;;5034365;28;20292;-63
2021/01/29 06:05:11;;;;;;;0.70;0.40;;;11.30;99.90;;;;;;5033732;28;20233;-64
2021/01/29 06:08:13;;;;;;;0.40;0.27;;;11.30;99.90;;;;;;5034080;28;20217;-63
2021/01/29 06:11:07;;;;;;;0.27;0.10;;;11.30;99.90;;;;;;5034178;28;20206;-63
2021/01/29 06:13:57;;;;;;;0.23;0.23;;;11.20;99.90;;;;;;5034985;28;20217;-64
2021/01/29 06:16:48;;;;;;;0.50;0.30;;;11.30;99.90;;;;;;5034281;28;20303;-64
2021/01/29 06:19:30;;;;;;;0.30;0.20;;;11.10;99.90;;;;;;5034197;28;20252;-63
2021/01/29 06:22:22;;;;;;;0.40;0.30;;;11.20;99.90;;;;;;5034338;28;20202;-63
2021/01/29 06:25:01;;;;;;;0.93;0.30;;;11.20;99.90;;;;;;5018043;28;20639;-64
2021/01/29 06:28:04;;;;;;;0.93;0.40;;;11.20;99.90;;;;;;5034269;28;20621;-66
2021/01/29 06:30:44;;;;;;;1.57;0.40;;;11.30;99.90;;;;;;5031817;28;20213;-63
2021/01/29 06:34:02;;;;;;;0.30;0.20;;;11.40;99.90;;;;;;5034726;28;20210;-64
2021/01/29 06:36:40;;;;;;;1.10;0.40;;;11.40;99.90;;;;;;5033684;28;20234;-63
2021/01/29 06:39:15;;;;;;;0.70;0.40;;;11.20;99.90;;;;;;5033772;28;20213;-64
2021/01/29 06:42:04;;;;;;;0.70;0.30;;;11.20;99.90;;;;;;5034166;28;20275;-64
2021/01/29 06:44:51;;;;;;;1.83;0.40;;;11.20;99.90;;;;;;5033801;28;20281;-63
2021/01/29 06:47:30;;;;;;;0.63;0.30;;;11.10;99.90;;;;;;5034060;28;20209;-63
2021/01/29 06:50:14;;;;;;;0.20;0.20;;;11.10;99.90;;;;;;5033866;28;20210;-63
2021/01/29 06:53:14;;;;;;;1.33;0.67;;;11.00;99.90;;;;;;5032722;28;20218;-64
2021/01/29 06:56:07;;;;;;;0.37;0.37;;;11.00;99.90;;;;;;5008605;28;20234;-63
2021/01/29 06:58:54;;;;;;;0.47;0.47;;;11.10;99.90;;;;;;5033858;28;20210;-63
2021/01/29 07:01:49;;;;;;;0.40;0.30;;;11.10;99.90;;;;;;5033552;28;20213;-64
2021/01/29 07:04:45;;;;;;;2.23;0.40;;;11.20;99.90;;;;;;5033891;28;20222;-63
2021/01/29 07:07:20;;;;;;;1.20;0.67;;;11.20;99.90;;;;;;5033517;28;20210;-63
2021/01/29 07:10:15;;;;;;;3.17;0.43;;;11.30;99.90;;;;;;5033700;28;20210;-64
2021/01/29 07:12:55;;;;;;;2.33;0.77;;;11.30;99.90;;;;;;5032048;28;20207;-63
2021/01/29 07:15:33;;;;;;;1.33;0.30;;;11.30;99.90;;;;;;5033614;28;20661;-64
2021/01/29 07:18:38;;;;;;;1.00;0.40;;;11.40;99.90;;;;;;5033737;28;20232;-64
2021/01/29 07:21:37;;;;;;;0.10;0.10;;;11.30;99.90;;;;;;5033723;28;20210;-64
2021/01/29 07:24:14;;;;;;;0.33;0.23;;;11.20;99.90;;;;;;5032894;28;20245;-64
2021/01/29 07:26:58;;;;;;;0.33;0.20;;;11.30;99.90;;;;;;5032986;28;20213;-64
2021/01/29 07:29:41;;;;;;;1.60;0.97;;;11.30;99.90;;;;;;5033390;28;20214;-64
2021/01/29 07:32:15;;;;;;;0.40;0.30;;;11.40;99.90;;;;;;5033049;28;20206;-64
2021/01/29 07:34:54;;;;;;;1.07;0.60;;;11.50;99.90;;;;;;5032907;28;20234;-64
2021/01/29 07:38:09;;;;;;;0.73;0.40;;;11.50;99.90;;;;;;5032616;28;20638;-64
2021/01/29 07:41:07;;;;;;;0.70;0.40;;;11.50;99.90;;;;;;5032390;28;20547;-63
2021/01/29 07:43:48;;;;;;;1.67;0.40;;;11.60;99.90;;;;;;5032128;28;20213;-64
2021/01/29 07:46:28;;;;;;;0.33;0.30;;;11.60;99.90;;;;;;5032176;28;20202;-63
2021/01/29 07:49:05;;;;;;;0.47;0.20;;;11.70;99.90;;;;;;5031852;28;20256;-61
2021/01/29 07:51:43;;;;;;;0.40;0.20;;;11.60;99.90;;;;;;5032225;28;20202;-63
2021/01/29 07:54:52;;;;;;;0.90;0.53;;;11.70;99.90;;;;;;5032032;28;20237;-61
2021/01/29 07:57:29;;;;;;;0.30;0.20;;;11.70;99.90;;;;;;5031903;28;20264;-62
2021/01/29 08:00:05;;;;;;;3.10;0.33;;;11.70;99.90;;;;;;5031865;28;20233;-62
2021/01/29 08:02:54;;;;;;;1.13;0.20;;;11.80;99.90;;;;;;5031564;28;20263;-61
2021/01/29 08:05:26;;;;;;;0.73;0.30;;;11.90;99.90;;;;;;5031535;28;20226;-63
2021/01/29 08:07:58;;;;;;;0.50;0.40;;;12.00;99.90;;;;;;5032027;28;20670;-61
2021/01/29 08:10:29;;;;;;;1.73;0.77;;;12.10;99.90;;;;;;5032956;28;20214;-62
2021/01/29 08:13:06;;;;;;;0.90;0.70;;;12.00;99.90;;;;;;5031782;28;20202;-62
2021/01/29 08:15:38;;;;;;;0.87;0.50;;;12.10;99.90;;;;;;5031541;28;20230;-62
2021/01/29 08:18:37;;;;;;;1.17;0.70;;;12.20;99.90;;;;;;5031125;28;20690;-63
2021/01/29 08:21:27;;;;;;;1.50;0.40;;;12.20;99.90;;;;;;5031503;28;20293;-64
2021/01/29 08:24:06;;;;;;;0.63;0.30;;;12.30;99.90;;;;;;5031325;28;20226;-64
2021/01/29 08:26:41;;;;;;;1.07;0.50;;;12.20;99.90;;;;;;5031171;28;20213;-62
2021/01/29 08:30:01;;;;;;;0.57;0.30;;;12.20;99.90;;;;;;5031323;28;20216;-63
2021/01/29 08:33:04;;;;;;;1.50;0.60;;;12.20;99.90;;;;;;5031155;28;20297;-63
2021/01/29 08:35:49;;;;;;;1.90;0.63;;;12.20;99.90;;;;;;5031076;28;20233;-62
2021/01/29 08:38:22;;;;;;;1.67;0.43;;;12.20;99.90;;;;;;5031155;28;20209;-62
2021/01/29 08:41:01;;;;;;;0.50;0.30;;;12.30;99.90;;;;;;5031221;28;20206;-62
2021/01/29 08:43:55;;;;;;;0.40;0.30;;;12.30;99.90;;;;;;5030965;28;20206;-62
2021/01/29 08:46:35;;;;;;;0.40;0.30;;;12.30;99.90;;;;;;5027112;28;20209;-63
2021/01/29 08:49:15;;;;;;;0.70;0.30;;;12.30;99.90;;;;;;5031028;28;20210;-62
2021/01/29 08:51:47;;;;;;;0.30;0.30;;;12.20;99.90;;;;;;5031027;28;20244;-62
2021/01/29 08:54:34;;;;;;;2.17;0.30;;;12.30;99.90;;;;;;5031033;28;20230;-62
2021/01/29 08:57:08;;;;;;;0.10;0.10;;;12.40;99.90;;;;;;5032461;28;20226;-61
2021/01/29 08:59:38;;;;;;;0.33;0.27;;;12.40;99.90;;;;;;5032922;28;20244;-61
2021/01/29 09:02:15;;;;;;;1.33;0.63;;;12.30;99.90;;;;;;5033077;28;20206;-62
2021/01/29 09:04:46;;;;;;;1.27;0.50;;;12.40;99.90;;;;;;5032386;28;20596;-63
2021/01/29 09:07:18;;;;;;;0.77;0.43;;;12.40;99.90;;;;;;5031469;28;20693;-63
2021/01/29 09:09:45;;;;;;;0.50;0.20;;;12.50;99.90;;;;;;5030916;28;20221;-63
2021/01/29 09:12:18;;;;;;;1.10;0.93;;;12.70;99.90;;;;;;5030728;28;20213;-62
2021/01/29 09:14:53;;;;;;;0.60;0.40;;;12.80;99.90;;;;;;5031241;28;20232;-62
2021/01/29 09:17:23;;;;;;;3.03;1.17;;;12.80;99.90;;;;;;5034982;28;20260;-63
2021/01/29 09:19:56;;;;;;;3.17;0.50;;;12.80;99.90;;;;;;5034669;28;20753;-62
2021/01/29 09:22:27;;;;;;;0.80;0.50;;;13.00;99.90;;;;;;5034800;28;20661;-63
2021/01/29 09:25:00;;;;;;;1.27;0.53;;;12.90;99.90;;;;;;5034599;28;20241;-63
2021/01/29 09:28:03;;;;;;;0.90;0.50;;;13.00;99.90;;;;;;5034843;28;20207;-63
2021/01/29 09:30:33;;;;;;;0.83;0.50;;;12.90;99.90;;;;;;5034973;28;20212;-63
2021/01/29 09:33:09;;;;;;;1.43;0.70;;;12.90;99.90;;;;;;5034790;28;20210;-63
2021/01/29 09:35:51;;;;;;;2.33;0.77;;;12.90;99.90;;;;;;5034712;28;20261;-63
2021/01/29 09:38:22;;;;;;;2.25;0.70;;;13.00;99.90;;;;;;5033061;28;20758;-62
2021/01/29 09:40:56;;;;;;;1.67;0.63;;;12.90;99.90;;;;;;5014664;28;20215;-62
2021/01/29 09:43:33;;;;;;;2.40;0.50;;;12.80;99.90;;;;;;5014952;28;20207;-62
2021/01/29 09:46:01;;;;;;;1.60;0.60;;;12.80;99.90;;;;;;5015309;28;20226;-60
2021/01/29 09:48:28;;;;;;;2.40;0.90;;;12.70;99.90;;;;;;5014860;28;20207;-62
2021/01/29 09:51:11;;;;;;;3.03;0.77;;;12.70;99.90;;;;;;5014837;28;20389;-62
2021/01/29 09:53:44;;;;;;;1.23;0.40;;;12.70;99.90;;;;;;5014156;28;20316;-63
2021/01/29 09:56:17;;;;;;;2.17;0.90;;;12.70;99.90;;;;;;5014092;28;20597;-62
2021/01/29 09:59:12;;;;;;;1.00;0.57;;;12.80;99.90;;;;;;5014560;28;20207;-62
2021/01/29 10:01:42;;;;;;;2.10;0.67;;;12.80;99.90;;;;;;5014293;28;20214;-63
2021/01/29 10:04:15;;;;;;;6.47;1.17;;;12.80;99.90;;;;;;5013858;28;20277;-62
2021/01/29 10:06:48;;;;;;;2.40;0.90;;;13.10;99.90;;;;;;5014363;28;20202;-63
2021/01/29 10:09:17;;;;;;;3.23;1.10;;;13.20;99.90;;;;;;5014286;28;20671;-63
2021/01/29 10:11:47;;;;;;;3.70;1.10;;;13.20;99.90;;;;;;5014193;28;20589;-64
2021/01/29 10:14:18;;;;;;;2.40;1.00;;;13.40;99.90;;;;;;5013955;28;20258;-64
2021/01/29 10:16:52;;;;;;;4.67;1.53;;;13.50;99.90;;;;;;5014043;28;20230;-62
2021/01/29 10:19:41;;;;;;;3.30;1.17;;;13.40;99.90;;;;;;5013871;28;20207;-64
2021/01/29 10:22:26;;;;;;;4.90;1.10;;;13.40;99.90;;;;;;5014347;28;20265;-64
2021/01/29 10:25:02;;;;;;;3.03;1.03;;;13.20;99.90;;;;;;5013740;28;20249;-61
2021/01/29 10:27:35;;;;;;;2.50;1.00;;;12.90;99.90;;;;;;5012418;28;20211;-62
2021/01/29 10:30:07;;;;;;;2.83;1.07;;;13.00;99.90;;;;;;5013877;28;20207;-64
2021/01/29 10:32:36;;;;;;;3.80;1.20;;;13.00;99.90;;;;;;5013775;28;20214;-63
2021/01/29 10:35:09;;;;;;;4.40;1.20;;;13.10;99.90;;;;;;5013444;28;20317;-62
2021/01/29 10:37:40;;;;;;;6.53;1.10;;;13.20;99.90;;;;;;5013392;28;20210;-63
2021/01/29 10:40:28;;;;;;;6.33;1.37;;;13.30;99.90;;;;;;5013744;28;20210;-63
2021/01/29 10:43:03;;;;;;;4.90;1.20;;;13.20;99.90;;;;;;5013193;28;20207;-62
2021/01/29 10:45:47;;;;;;;6.27;1.90;;;13.30;99.90;;;;;;5013227;28;20237;-62
2021/01/29 10:48:31;;;;;;;5.13;1.50;;;13.30;99.90;;;;;;5013596;28;20249;-62
2021/01/29 10:51:04;;;;;;;4.53;1.30;;;13.20;99.90;;;;;;5013421;28;20697;-62
2021/01/29 10:53:32;;;;;;;3.97;1.10;;;13.20;99.90;;;;;;5013336;28;20210;-62
2021/01/29 10:56:01;;;;;;;6.80;1.30;;;13.30;99.90;;;;;;5013186;28;20273;-61
2021/01/29 10:58:48;;;;;;;3.27;1.00;;;13.40;99.90;;;;;;5013063;28;20218;-62
2021/01/29 11:01:28;;;;;;;4.27;1.20;;;13.60;99.90;;;;;;5013553;28;20214;-62
2021/01/29 11:04:03;;;;;;;5.17;1.47;;;13.60;99.30;;;;;;5013216;28;20230;-60
2021/01/29 11:06:39;;;;;;;5.13;1.40;;;13.50;99.70;;;;;;5013452;28;20206;-62
2021/01/29 11:09:17;;;;;;;6.00;1.53;;;13.50;99.80;;;;;;5013003;28;20214;-62
2021/01/29 11:11:49;;;;;;;4.17;1.33;;;13.80;99.80;;;;;;5012994;28;20667;-62
2021/01/29 11:14:25;;;;;;;7.40;1.37;;;13.90;99.20;;;;;;5012698;28;20235;-63
2021/01/29 11:17:00;;;;;;;4.40;1.30;;;13.80;99.50;;;;;;5012930;28;20230;-62
2021/01/29 11:19:33;;;;;;;3.57;1.23;;;13.90;99.40;;;;;;5012453;28;20217;-62
2021/01/29 11:22:42;;;;;;;4.10;1.50;;;14.00;98.90;;;;;;5012690;28;20210;-62
2021/01/29 11:25:42;;;;;;;3.53;1.10;;;14.10;99.00;;;;;;4990635;28;20226;-63
2021/01/29 11:28:18;;;;;;;5.27;1.23;;;14.20;98.90;;;;;;5012524;28;20299;-62
2021/01/29 11:30:54;;;;;;;3.83;1.40;;;14.30;99.00;;;;;;5012845;28;20214;-59
2021/01/29 11:33:28;;;;;;;6.33;1.80;;;14.40;99.10;;;;;;5012874;28;20217;-63
2021/01/29 11:36:00;;;;;;;4.10;1.53;;;14.40;98.90;;;;;;5012970;28;20223;-62
2021/01/29 11:38:38;;;;;;;6.37;1.27;;;14.50;99.00;;;;;;5012101;28;20212;-63
2021/01/29 11:41:15;;;;;;;7.53;1.80;;;14.50;99.00;;;;;;5012214;28;20582;-63
2021/01/29 11:43:45;;;;;;;4.87;1.77;;;14.40;98.20;;;;;;5012098;28;20234;-63
2021/01/29 11:46:25;;;;;;;5.23;1.13;;;14.40;98.60;;;;;;5012394;28;20199;-63
2021/01/29 11:48:58;;;;;;;6.40;1.40;;;14.40;98.90;;;;;;5012309;28;20214;-62
2021/01/29 11:51:33;;;;;;;5.83;1.73;;;14.30;98.40;;;;;;5012424;28;20210;-63
2021/01/29 11:54:05;;;;;;;5.13;1.57;;;14.20;98.50;;;;;;5011984;28;20313;-62
2021/01/29 11:56:37;;;;;;;4.83;1.37;;;13.90;98.20;;;;;;5012012;28;20226;-63
2021/01/29 11:59:13;;;;;;;4.97;1.23;;;13.90;98.80;;;;;;5011958;28;20269;-62
2021/01/29 12:01:42;;;;;;;4.07;1.40;;;13.80;99.10;;;;;;5012207;28;20217;-63
2021/01/29 12:04:22;;;;;;;4.53;1.33;;;13.90;99.40;;;;;;5011915;28;20238;-63
2021/01/29 12:06:56;;;;;;;4.03;1.50;;;13.90;99.20;;;;;;5012268;28;20257;-61
2021/01/29 12:09:31;;;;;;;3.50;1.10;;;13.90;98.80;;;;;;5012318;28;20217;-62
2021/01/29 12:12:04;;;;;;;5.60;1.57;;;13.70;99.20;;;;;;5012670;28;20629;-65
2021/01/29 12:14:47;;;;;;;3.90;0.90;;;13.50;99.30;;;;;;5012024;28;20237;-63
2021/01/29 12:17:13;;;;;;;7.10;1.63;;;13.20;99.90;;;;;;5012228;28;20725;-63
2021/01/29 12:19:43;;;;;;;5.43;1.30;;;13.10;99.90;;;;;;5011699;28;20218;-63
2021/01/29 12:22:20;;;;;;;5.60;2.47;;;12.90;99.90;;;;;;5011721;28;20211;-63
2021/01/29 12:24:57;;;;;;;8.70;2.30;;;12.80;99.90;;;;;;5011367;28;20257;-61
2021/01/29 12:27:28;;;;;;;3.43;1.07;;;12.60;99.90;;;;;;5011608;28;20211;-63
2021/01/29 12:30:02;;;;;;;2.93;1.30;;;12.60;99.90;;;;;;5011313;28;20214;-63
2021/01/29 12:32:49;;;;;;;7.43;1.53;;;12.70;99.90;;;;;;5011796;28;20269;-63
2021/01/29 12:35:27;;;;;;;4.47;1.57;;;12.90;99.90;;;;;;5011104;28;20232;-63
2021/01/29 12:38:11;;;;;;;7.27;1.70;;;13.10;99.90;;;;;;5011623;28;20265;-63
2021/01/29 12:40:40;;;;;;;7.43;1.47;;;13.10;99.90;;;;;;5011120;28;20558;-63
2021/01/29 12:43:14;;;;;;;5.00;1.30;;;13.10;99.50;;;;;;5011533;28;20213;-63
2021/01/29 12:45:48;;;;;;;4.57;1.30;;;13.10;99.50;;;;;;5011112;28;20235;-63
2021/01/29 12:48:19;;;;;;;6.87;1.53;;;13.20;99.50;;;;;;5010862;28;20245;-62
2021/01/29 12:50:59;;;;;;;5.80;1.60;;;13.20;99.40;;;;;;5010793;28;20207;-63
2021/01/29 12:53:34;;;;;;;2.73;1.10;;;13.30;99.40;;;;;;5010982;28;20694;-63
2021/01/29 12:56:24;;;;;;;6.93;2.27;;;13.30;99.10;;;;;;5010071;28;20233;-61
2021/01/29 12:58:54;;;;;;;4.17;1.37;;;13.40;99.00;;;;;;5010118;28;20210;-62
2021/01/29 13:01:39;;;;;;;6.80;1.60;;;13.40;99.00;;;;;;5009581;28;20564;-61
2021/01/29 13:04:10;;;;;;;4.90;1.67;;;13.40;99.00;;;;;;5011130;28;20321;-62
2021/01/29 13:06:44;;;;;;;5.90;1.60;;;13.40;99.40;;;;;;5010719;28;20618;-62
2021/01/29 13:09:38;;;;;;;4.70;1.63;;;13.20;99.90;;;;;;5010757;28;20214;-62
2021/01/29 13:12:16;;;;;;;11.10;1.50;;;13.20;99.90;;;;;;5009089;28;20233;-63
2021/01/29 13:14:54;;;;;;;3.27;1.03;;;13.10;99.90;;;;;;5010491;28;20230;-62
2021/01/29 13:17:25;;;;;;;2.57;0.70;;;12.90;99.90;;;;;;5010896;28;20223;-62
2021/01/29 13:19:59;;;;;;;2.33;0.97;;;12.90;99.90;;;;;;5011036;28;20239;-62
2021/01/29 13:22:37;;;;;;;3.03;1.03;;;12.90;99.90;;;;;;5011447;28;20217;-61
2021/01/29 13:25:12;;;;;;;4.30;1.10;;;12.80;99.90;;;;;;5011760;28;20231;-61
2021/01/29 13:27:43;;;;;;;3.53;1.00;;;12.60;99.90;;;;;;5011672;28;20206;-61
2021/01/29 13:30:15;;;;;;;8.00;1.00;;;12.50;99.90;;;;;;5011585;28;20207;-63
2021/01/29 13:32:42;;;;;;;3.13;1.10;;;12.30;99.90;;;;;;5010811;28;20226;-62
2021/01/29 13:35:12;;;;;;;1.50;0.80;;;12.20;99.90;;;;;;5010659;28;20235;-60
2021/01/29 13:37:40;;;;;;;2.87;1.03;;;12.20;99.90;;;;;;5010887;28;20234;-60
2021/01/29 13:40:11;;;;;;;6.37;1.50;;;12.20;99.90;;;;;;5011269;28;20211;-60
2021/01/29 13:42:41;;;;;;;2.13;0.80;;;12.20;99.90;;;;;;5010838;28;20207;-60